Time;durP1;ratioP1;P1;durP2;ratioP2;P2;SDS_P1;SDS_P2;PMS_P1;PMS_P2;Temp;Humidity;BMP_temperature;BMP_pressure;BME280_temperature;BME280_humidity;BME280_pressure;Samples;Min_cycle;Max_cycle;Signal;HPM_P1;HPM_P2
2024/01/29 00:01:36;;;;;;;27.20;20.47;;;-0.10;21.50;;;;;;5025903;28;20483;-66
2024/01/29 00:04:03;;;;;;;27.73;20.23;;;-0.10;21.50;;;;;;5024221;28;20487;-66
2024/01/29 00:06:30;;;;;;;30.90;20.17;;;-0.10;21.40;;;;;;5027147;28;20471;-66
2024/01/29 00:08:58;;;;;;;27.20;20.37;;;-0.10;21.40;;;;;;5021015;28;20468;-66
2024/01/29 00:11:25;;;;;;;24.53;19.60;;;-0.10;21.40;;;;;;5028151;28;20935;-66
2024/01/29 00:13:52;;;;;;;29.47;19.10;;;-0.20;21.30;;;;;;5031414;28;20458;-67
2024/01/29 00:16:19;;;;;;;28.53;19.60;;;-0.20;21.30;;;;;;5053193;28;20459;-67
2024/01/29 00:18:46;;;;;;;27.73;20.07;;;-0.20;21.30;;;;;;5042933;28;20462;-67
2024/01/29 00:21:13;;;;;;;23.70;18.17;;;-0.20;21.40;;;;;;5021820;28;20467;-67
2024/01/29 00:23:40;;;;;;;23.60;17.00;;;-0.20;21.30;;;;;;5025433;28;21022;-67
2024/01/29 00:26:08;;;;;;;25.53;18.90;;;-0.20;21.30;;;;;;5021753;28;20486;-67
2024/01/29 00:28:35;;;;;;;26.50;17.47;;;-0.20;22.00;;;;;;5023608;28;20487;-67
2024/01/29 00:31:02;;;;;;;20.67;16.47;;;-0.30;21.40;;;;;;5025851;28;20481;-68
2024/01/29 00:33:28;;;;;;;25.13;17.07;;;-0.30;21.40;;;;;;5023448;28;20466;-67
2024/01/29 00:35:55;;;;;;;23.20;16.90;;;-0.30;21.40;;;;;;5025501;28;20459;-67
2024/01/29 00:38:22;;;;;;;24.97;16.70;;;-0.30;21.50;;;;;;5025927;28;20479;-67
2024/01/29 00:40:49;;;;;;;24.03;15.97;;;-0.30;21.60;;;;;;5028264;28;20466;-67
2024/01/29 00:43:17;;;;;;;19.90;15.50;;;-0.30;21.50;;;;;;5027028;28;20482;-67
2024/01/29 00:45:44;;;;;;;21.87;16.70;;;-0.30;21.50;;;;;;5026695;28;20812;-67
2024/01/29 00:48:10;;;;;;;20.80;15.80;;;-0.30;21.50;;;;;;5029336;28;20513;-67
2024/01/29 00:50:37;;;;;;;21.27;16.20;;;-0.30;21.60;;;;;;5028507;28;20975;-67
2024/01/29 00:53:05;;;;;;;23.90;16.83;;;-0.40;21.50;;;;;;5028213;28;20463;-67
2024/01/29 00:55:32;;;;;;;22.90;15.93;;;-0.40;21.40;;;;;;5031258;28;20556;-67
2024/01/29 00:57:59;;;;;;;25.93;17.30;;;-0.40;21.40;;;;;;5027289;28;20489;-67
2024/01/29 01:00:27;;;;;;;22.20;16.27;;;-0.40;21.40;;;;;;5027272;28;20871;-67
2024/01/29 01:02:54;;;;;;;28.53;16.67;;;-0.30;21.60;;;;;;5030379;28;20489;-67
2024/01/29 01:05:21;;;;;;;22.47;16.40;;;-0.40;21.50;;;;;;5028811;28;20466;-67
2024/01/29 01:07:48;;;;;;;21.80;16.37;;;-0.30;21.60;;;;;;5027896;28;20482;-67
2024/01/29 01:10:14;;;;;;;21.60;15.23;;;-0.40;21.80;;;;;;5027959;28;20503;-67
2024/01/29 01:12:41;;;;;;;24.53;16.97;;;-0.40;21.80;;;;;;5027253;28;20839;-67
2024/01/29 01:15:08;;;;;;;22.67;17.00;;;-0.30;21.80;;;;;;5027793;28;20455;-67
2024/01/29 01:17:37;;;;;;;24.90;17.10;;;-0.40;21.80;;;;;;5021538;28;20494;-67
2024/01/29 01:20:04;;;;;;;23.77;16.67;;;-0.30;21.90;;;;;;5031660;28;20956;-67
2024/01/29 01:22:31;;;;;;;23.57;15.63;;;-0.30;21.90;;;;;;5026833;28;20462;-68
2024/01/29 01:24:57;;;;;;;20.57;14.37;;;-0.30;21.90;;;;;;5025547;28;20478;-68
2024/01/29 01:27:25;;;;;;;21.23;14.50;;;-0.30;21.90;;;;;;5024562;28;20487;-67
2024/01/29 01:29:52;;;;;;;20.27;14.37;;;-0.30;21.80;;;;;;5028207;28;20477;-67
2024/01/29 01:32:18;;;;;;;17.97;12.80;;;-0.40;21.80;;;;;;5029416;28;21002;-67
2024/01/29 01:34:47;;;;;;;21.13;14.60;;;-0.40;21.80;;;;;;5027734;28;20459;-67
2024/01/29 01:37:13;;;;;;;18.17;13.23;;;-0.30;21.90;;;;;;5028499;28;20491;-67
2024/01/29 01:39:40;;;;;;;20.43;14.93;;;-0.40;21.80;;;;;;5027934;28;20462;-67
2024/01/29 01:42:08;;;;;;;21.23;15.20;;;-0.30;21.90;;;;;;5029425;28;20455;-67
2024/01/29 01:44:35;;;;;;;22.13;15.90;;;-0.40;21.80;;;;;;5025800;28;20526;-67
2024/01/29 01:47:01;;;;;;;22.33;15.33;;;-0.40;21.80;;;;;;5025092;28;20475;-67
2024/01/29 01:49:29;;;;;;;23.43;16.33;;;-0.40;21.80;;;;;;5023227;28;20480;-67
2024/01/29 01:51:57;;;;;;;23.83;16.80;;;-0.40;21.80;;;;;;5022309;28;21027;-67
2024/01/29 01:54:25;;;;;;;19.20;15.70;;;-0.40;21.80;;;;;;5027040;28;20454;-68
2024/01/29 01:57:29;;;;;;;22.83;16.20;;;-0.40;21.60;;;;;;5024571;28;20472;-67
2024/01/29 01:59:56;;;;;;;23.67;15.40;;;-0.40;21.80;;;;;;5027510;28;20472;-67
2024/01/29 02:02:23;;;;;;;22.00;15.17;;;-0.40;21.60;;;;;;5026667;28;20475;-68
2024/01/29 02:04:50;;;;;;;21.60;14.70;;;-0.40;21.80;;;;;;5025824;28;20491;-68
2024/01/29 02:07:18;;;;;;;18.93;14.90;;;-0.40;21.80;;;;;;5027475;28;20927;-67
2024/01/29 02:09:46;;;;;;;22.60;15.87;;;-0.40;21.80;;;;;;5027669;28;20459;-67
2024/01/29 02:12:12;;;;;;;20.77;15.00;;;-0.40;21.80;;;;;;5024576;28;20462;-67
2024/01/29 02:14:39;;;;;;;20.70;14.30;;;-0.40;21.80;;;;;;5028804;28;20467;-68
2024/01/29 02:17:06;;;;;;;20.90;14.50;;;-0.40;21.90;;;;;;5025086;28;20498;-67
2024/01/29 02:19:33;;;;;;;20.90;15.80;;;-0.40;21.80;;;;;;5025238;28;20447;-67
2024/01/29 02:22:00;;;;;;;19.80;14.53;;;-0.40;21.80;;;;;;5026479;28;20463;-67
2024/01/29 02:24:28;;;;;;;23.20;15.93;;;-0.40;21.70;;;;;;5029163;28;20482;-67
2024/01/29 02:26:55;;;;;;;23.70;15.80;;;-0.40;21.70;;;;;;5027596;28;20856;-67
2024/01/29 02:29:21;;;;;;;20.07;15.93;;;-0.40;21.70;;;;;;5028423;28;20475;-67
2024/01/29 02:31:48;;;;;;;20.07;15.37;;;-0.40;21.70;;;;;;5026876;28;20501;-66
2024/01/29 02:34:15;;;;;;;21.47;14.67;;;-0.40;21.70;;;;;;5026948;28;20474;-67
2024/01/29 02:36:42;;;;;;;20.80;15.57;;;-0.40;21.80;;;;;;5025351;28;20484;-67
2024/01/29 02:39:08;;;;;;;20.40;14.80;;;-0.40;21.80;;;;;;5023352;28;20463;-67
2024/01/29 02:41:36;;;;;;;20.97;15.13;;;-0.50;21.70;;;;;;5028442;28;20463;-67
2024/01/29 02:44:04;;;;;;;25.60;15.90;;;-0.50;21.70;;;;;;5025146;28;21751;-69
2024/01/29 02:46:30;;;;;;;22.50;15.40;;;-0.50;21.80;;;;;;5023411;28;20485;-67
2024/01/29 02:48:57;;;;;;;25.93;16.90;;;-0.50;21.80;;;;;;5023784;28;20490;-67
2024/01/29 02:51:24;;;;;;;22.60;15.77;;;-0.50;21.80;;;;;;5026516;28;20495;-67
2024/01/29 02:53:51;;;;;;;21.57;15.47;;;-0.50;21.80;;;;;;5025594;28;20477;-67
2024/01/29 02:56:17;;;;;;;23.10;15.37;;;-0.50;21.80;;;;;;5025921;28;20463;-68
2024/01/29 02:58:46;;;;;;;23.27;16.00;;;-0.50;21.80;;;;;;5025851;28;20502;-67
2024/01/29 03:01:12;;;;;;;23.23;15.63;;;-0.50;21.90;;;;;;5027354;28;20463;-67
2024/01/29 03:03:39;;;;;;;23.67;15.93;;;-0.50;22.50;;;;;;5025675;28;20494;-67
2024/01/29 03:06:06;;;;;;;23.43;17.33;;;-0.50;21.90;;;;;;5026076;28;20459;-68
2024/01/29 03:08:33;;;;;;;26.47;16.70;;;-0.50;22.40;;;;;;5023490;28;20483;-67
2024/01/29 03:11:00;;;;;;;26.57;17.03;;;-0.60;21.80;;;;;;5022890;28;20943;-67
2024/01/29 03:13:26;;;;;;;23.83;17.43;;;-0.60;21.90;;;;;;5031256;28;20795;-68
2024/01/29 03:15:55;;;;;;;29.30;17.43;;;-0.60;21.90;;;;;;5026373;28;20452;-68
2024/01/29 03:18:21;;;;;;;21.57;14.97;;;-0.60;22.10;;;;;;5028913;28;20491;-68
2024/01/29 03:20:48;;;;;;;23.67;16.30;;;-0.60;22.10;;;;;;5051648;28;20461;-67
2024/01/29 03:23:15;;;;;;;24.43;15.03;;;-0.60;22.20;;;;;;5041320;28;20501;-67
2024/01/29 03:25:42;;;;;;;24.90;16.30;;;-0.60;22.20;;;;;;5028842;28;20513;-67
2024/01/29 03:28:09;;;;;;;26.50;15.80;;;-0.60;22.20;;;;;;5025179;28;20479;-67
2024/01/29 03:30:35;;;;;;;20.93;14.07;;;-0.60;22.30;;;;;;5026267;28;20463;-67
2024/01/29 03:33:04;;;;;;;23.53;16.60;;;-0.60;22.60;;;;;;5022606;28;21004;-67
2024/01/29 03:35:31;;;;;;;23.27;16.57;;;-0.60;22.70;;;;;;5030618;28;20463;-67
2024/01/29 03:38:26;;;;;;;26.47;15.43;;;-0.60;22.70;;;;;;5024256;28;20503;-67
2024/01/29 03:40:53;;;;;;;21.77;15.67;;;-0.60;22.80;;;;;;5020433;28;20471;-67
2024/01/29 03:43:20;;;;;;;21.17;15.33;;;-0.50;22.80;;;;;;5027771;28;20455;-67
2024/01/29 03:45:47;;;;;;;24.60;15.77;;;-0.60;22.70;;;;;;5025085;28;20912;-67
2024/01/29 03:48:15;;;;;;;19.10;14.10;;;-0.60;22.70;;;;;;5023181;28;20498;-68
2024/01/29 03:50:42;;;;;;;23.40;15.53;;;-0.50;22.90;;;;;;5023660;28;20478;-67
2024/01/29 03:53:09;;;;;;;25.30;16.50;;;-0.50;22.90;;;;;;5026246;28;20463;-67
2024/01/29 03:55:36;;;;;;;21.10;15.13;;;-0.60;23.50;;;;;;5022129;28;20459;-67
2024/01/29 03:58:02;;;;;;;26.90;15.70;;;-0.60;22.90;;;;;;5022201;28;20479;-67
2024/01/29 04:00:30;;;;;;;23.30;15.00;;;-0.60;22.90;;;;;;5024328;28;20479;-67
2024/01/29 04:02:57;;;;;;;22.80;14.93;;;-0.60;22.90;;;;;;5023979;28;20532;-67
2024/01/29 04:05:45;;;;;;;24.40;17.50;;;-0.60;22.90;;;;;;5026218;28;21057;-67
2024/01/29 04:08:12;;;;;;;23.73;16.03;;;-0.60;23.00;;;;;;5027126;28;20554;-67
2024/01/29 04:10:39;;;;;;;28.70;16.43;;;-0.60;23.00;;;;;;5026292;28;20802;-67
2024/01/29 04:13:05;;;;;;;33.80;19.20;;;-0.50;23.20;;;;;;5026305;28;20489;-67
2024/01/29 04:15:32;;;;;;;26.87;18.50;;;-0.50;23.20;;;;;;5019555;28;20447;-67
2024/01/29 04:17:59;;;;;;;23.77;16.57;;;-0.50;23.30;;;;;;5031454;28;20474;-67
2024/01/29 04:20:26;;;;;;;25.67;17.27;;;-0.60;23.40;;;;;;5028890;28;20459;-67
2024/01/29 04:22:54;;;;;;;22.10;15.13;;;-0.60;23.50;;;;;;5029305;28;20470;-67
2024/01/29 04:25:21;;;;;;;27.63;16.87;;;-0.60;23.50;;;;;;5030945;28;20479;-67
2024/01/29 04:27:48;;;;;;;29.20;17.30;;;-0.60;23.60;;;;;;5025493;28;20522;-68
2024/01/29 04:30:15;;;;;;;24.00;17.10;;;-0.60;23.80;;;;;;5025911;28;20914;-68
2024/01/29 04:32:42;;;;;;;27.37;18.60;;;-0.60;24.00;;;;;;5014525;28;20485;-68
2024/01/29 04:35:09;;;;;;;23.77;16.40;;;-0.60;23.90;;;;;;5025459;28;20459;-67
2024/01/29 04:37:36;;;;;;;29.20;19.00;;;-0.60;23.80;;;;;;5029205;28;20475;-68
2024/01/29 04:40:05;;;;;;;29.77;18.90;;;-0.60;23.70;;;;;;5024275;28;20475;-67
2024/01/29 04:42:32;;;;;;;25.87;16.90;;;-0.60;23.60;;;;;;5024519;28;20465;-67
2024/01/29 04:44:58;;;;;;;25.00;16.17;;;-0.60;23.50;;;;;;5026380;28;21036;-67
2024/01/29 04:47:26;;;;;;;24.50;16.47;;;-0.60;23.40;;;;;;5030126;28;20490;-67
2024/01/29 04:49:52;;;;;;;26.80;18.17;;;-0.60;23.40;;;;;;5032317;28;20462;-67
2024/01/29 04:52:19;;;;;;;25.13;16.80;;;-0.60;23.30;;;;;;5024939;28;20830;-67
2024/01/29 04:54:46;;;;;;;26.03;17.67;;;-0.60;23.30;;;;;;5026884;28;20458;-67
2024/01/29 04:57:14;;;;;;;22.90;15.80;;;-0.60;23.30;;;;;;5023001;28;20479;-67
2024/01/29 04:59:41;;;;;;;25.30;14.87;;;-0.60;23.30;;;;;;5029037;28;20462;-67
2024/01/29 05:02:07;;;;;;;20.80;15.00;;;-0.60;23.30;;;;;;5019472;28;20474;-68
2024/01/29 05:04:34;;;;;;;22.00;15.83;;;-0.60;23.10;;;;;;5024879;28;21047;-67
2024/01/29 05:07:01;;;;;;;24.27;16.17;;;-0.60;23.10;;;;;;5023303;28;20488;-67
2024/01/29 05:09:27;;;;;;;23.03;15.80;;;-0.60;23.00;;;;;;5025165;28;20459;-67
2024/01/29 05:11:54;;;;;;;26.73;17.53;;;-0.60;23.00;;;;;;5028578;28;21304;-67
2024/01/29 05:14:23;;;;;;;23.67;15.70;;;-0.60;22.90;;;;;;5029245;28;20455;-67
2024/01/29 05:16:50;;;;;;;29.27;16.97;;;-0.60;22.90;;;;;;5024573;28;20483;-67
2024/01/29 05:22:06;;;;;;;26.30;16.70;;;-0.60;23.00;;;;;;5015724;28;20479;-69
2024/01/29 05:24:32;;;;;;;23.17;16.70;;;-0.60;23.00;;;;;;5029244;28;20475;-69
2024/01/29 05:26:59;;;;;;;27.13;18.20;;;-0.60;23.00;;;;;;5028727;28;20479;-69
2024/01/29 05:29:27;;;;;;;30.40;17.70;;;-0.60;23.00;;;;;;5027338;28;20466;-69
2024/01/29 05:31:54;;;;;;;27.47;17.27;;;-0.60;23.00;;;;;;5025359;28;20483;-69
2024/01/29 05:34:21;;;;;;;25.90;16.43;;;-0.60;22.90;;;;;;5029599;28;20457;-69
2024/01/29 05:36:47;;;;;;;25.33;17.70;;;-0.60;22.90;;;;;;5028617;28;20482;-69
2024/01/29 05:39:14;;;;;;;27.13;16.63;;;-0.60;22.90;;;;;;5027909;28;20807;-70
2024/01/29 05:41:41;;;;;;;27.37;17.23;;;-0.60;23.40;;;;;;5027531;28;20482;-70
2024/01/29 05:44:08;;;;;;;25.63;17.00;;;-0.60;22.80;;;;;;5026262;28;20991;-70
2024/01/29 05:46:37;;;;;;;27.90;16.83;;;-0.60;22.80;;;;;;5025126;28;20465;-70
2024/01/29 05:49:04;;;;;;;27.83;18.07;;;-0.60;22.90;;;;;;5008787;28;20503;-70
2024/01/29 05:51:30;;;;;;;24.47;16.63;;;-0.60;22.90;;;;;;5028832;28;20470;-70
2024/01/29 05:53:57;;;;;;;30.33;18.30;;;-0.60;22.90;;;;;;5025076;28;20451;-70
2024/01/29 05:56:24;;;;;;;31.03;18.03;;;-0.60;22.90;;;;;;5024866;28;20938;-70
2024/01/29 05:58:51;;;;;;;28.47;17.23;;;-0.60;22.90;;;;;;5026094;28;20458;-70
2024/01/29 06:01:17;;;;;;;28.07;19.03;;;-0.60;22.90;;;;;;5025645;28;20967;-70
2024/01/29 06:03:45;;;;;;;25.93;17.33;;;-0.60;22.90;;;;;;5026451;28;20459;-70
2024/01/29 06:06:12;;;;;;;26.60;18.17;;;-0.60;22.90;;;;;;5027292;28;21282;-70
2024/01/29 06:08:39;;;;;;;42.80;22.10;;;-0.60;22.90;;;;;;5020371;28;20484;-70
2024/01/29 06:11:05;;;;;;;42.43;20.17;;;-0.60;22.80;;;;;;5021103;28;20835;-70
2024/01/29 06:13:32;;;;;;;54.60;25.60;;;-0.60;22.80;;;;;;5024865;28;20486;-70
2024/01/29 06:16:01;;;;;;;60.27;28.97;;;-0.60;22.90;;;;;;5027608;28;21023;-70
2024/01/29 06:18:27;;;;;;;42.33;25.10;;;-0.60;23.00;;;;;;5027486;28;20557;-70
2024/01/29 06:20:55;;;;;;;31.60;19.00;;;-0.60;23.00;;;;;;5027441;28;20458;-70
2024/01/29 06:23:22;;;;;;;28.87;17.57;;;-0.50;23.50;;;;;;5025046;28;20830;-70
2024/01/29 06:25:49;;;;;;;30.27;17.83;;;-0.40;23.70;;;;;;5026909;28;20513;-70
2024/01/29 06:28:17;;;;;;;26.17;17.10;;;-0.40;23.60;;;;;;5024912;28;20483;-70
2024/01/29 06:30:43;;;;;;;24.93;17.60;;;-0.40;23.80;;;;;;5024451;28;20474;-70
2024/01/29 06:33:10;;;;;;;31.00;15.83;;;-0.40;24.00;;;;;;5024976;28;20451;-71
2024/01/29 06:35:37;;;;;;;23.70;16.73;;;-0.40;24.40;;;;;;5020543;28;20458;-70
2024/01/29 06:38:05;;;;;;;25.10;17.20;;;-0.40;24.60;;;;;;5022889;28;20485;-70
2024/01/29 06:40:32;;;;;;;25.73;16.67;;;-0.40;24.60;;;;;;5024938;28;21047;-70
2024/01/29 06:42:58;;;;;;;24.63;16.57;;;-0.40;24.60;;;;;;5025986;28;20455;-70
2024/01/29 06:45:28;;;;;;;29.93;18.73;;;-0.40;24.50;;;;;;5022266;28;20987;-70
2024/01/29 06:47:55;;;;;;;33.00;18.47;;;-0.40;24.40;;;;;;5021452;28;20479;-70
2024/01/29 06:50:21;;;;;;;28.63;17.57;;;-0.40;24.40;;;;;;5020370;28;20452;-70
2024/01/29 06:52:48;;;;;;;28.70;17.87;;;-0.40;24.20;;;;;;5022987;28;20463;-70
2024/01/29 06:55:20;;;;;;;22.40;16.60;;;-0.40;24.00;;;;;;5027376;28;20451;-70
2024/01/29 06:57:46;;;;;;;25.80;18.67;;;-0.40;23.80;;;;;;5022452;28;20475;-71
2024/01/29 07:00:14;;;;;;;28.47;17.20;;;-0.40;23.70;;;;;;5023846;28;20456;-71
2024/01/29 07:02:41;;;;;;;28.00;19.37;;;-0.40;23.50;;;;;;5021288;28;20466;-70
2024/01/29 07:05:08;;;;;;;28.13;17.77;;;-0.40;23.20;;;;;;5023001;28;20545;-70
2024/01/29 07:07:34;;;;;;;25.97;17.43;;;-0.30;23.20;;;;;;5025648;28;20493;-70
2024/01/29 07:10:01;;;;;;;28.40;17.50;;;-0.30;23.20;;;;;;5023592;28;20465;-70
2024/01/29 07:12:29;;;;;;;21.63;15.97;;;-0.20;23.10;;;;;;5022631;28;20471;-72
2024/01/29 07:14:56;;;;;;;21.50;15.80;;;-0.20;23.00;;;;;;5024352;28;20956;-70
2024/01/29 07:17:23;;;;;;;22.00;15.50;;;-0.10;22.90;;;;;;5024154;28;20478;-70
2024/01/29 07:19:52;;;;;;;22.50;16.70;;;-0.10;23.00;;;;;;5023386;28;20840;-70
2024/01/29 07:22:19;;;;;;;22.57;14.80;;;0.00;23.10;;;;;;5019968;28;20565;-69
2024/01/29 07:24:46;;;;;;;25.30;16.70;;;0.10;23.30;;;;;;5025003;28;20529;-68
2024/01/29 07:27:12;;;;;;;23.23;15.63;;;0.20;23.10;;;;;;5023444;28;20486;-68
2024/01/29 07:29:41;;;;;;;21.80;15.30;;;0.30;23.10;;;;;;5026743;28;20471;-69
2024/01/29 07:32:08;;;;;;;29.00;18.00;;;0.40;23.20;;;;;;5024875;28;20478;-69
2024/01/29 07:34:36;;;;;;;26.97;15.73;;;0.50;23.30;;;;;;5027830;28;20458;-69
2024/01/29 07:37:03;;;;;;;21.30;14.53;;;0.70;23.20;;;;;;5026682;28;20511;-69
2024/01/29 07:39:30;;;;;;;22.00;15.00;;;1.00;23.00;;;;;;5050994;28;20475;-69
2024/01/29 07:41:56;;;;;;;25.83;15.37;;;1.40;22.40;;;;;;5048068;28;20451;-69
2024/01/29 07:44:23;;;;;;;31.77;21.03;;;2.10;21.40;;;;;;5025141;28;20455;-69
2024/01/29 07:46:51;;;;;;;36.97;20.47;;;2.90;19.20;;;;;;5022331;28;20484;-68
2024/01/29 07:49:18;;;;;;;23.93;16.10;;;3.70;17.90;;;;;;5029800;28;20465;-68
2024/01/29 07:51:44;;;;;;;21.10;13.53;;;4.50;15.50;;;;;;5026090;28;20470;-68
2024/01/29 07:54:11;;;;;;;22.10;15.10;;;5.40;13.80;;;;;;5029111;28;20466;-69
2024/01/29 07:56:39;;;;;;;24.50;14.00;;;6.10;12.30;;;;;;5027709;28;20454;-69
2024/01/29 07:59:06;;;;;;;20.10;12.73;;;6.50;11.50;;;;;;5030420;28;20466;-69
2024/01/29 08:01:32;;;;;;;18.00;12.93;;;6.50;10.50;;;;;;5029246;28;20852;-69
2024/01/29 08:04:01;;;;;;;17.03;11.90;;;6.60;9.90;;;;;;5029347;28;20482;-69
2024/01/29 08:06:28;;;;;;;16.10;12.07;;;6.80;10.10;;;;;;5026737;28;21107;-69
2024/01/29 08:08:55;;;;;;;18.23;14.10;;;7.20;9.80;;;;;;5026001;28;20885;-69
2024/01/29 08:11:21;;;;;;;16.40;12.57;;;7.60;9.10;;;;;;5024088;28;20471;-69
2024/01/29 08:13:48;;;;;;;19.70;12.90;;;7.80;8.20;;;;;;5023646;28;20475;-69
2024/01/29 08:16:15;;;;;;;19.30;13.17;;;7.90;8.30;;;;;;5023296;28;20470;-69
2024/01/29 08:18:42;;;;;;;15.90;11.60;;;8.00;7.80;;;;;;5020934;28;20534;-69
2024/01/29 08:21:10;;;;;;;20.83;12.27;;;8.20;7.70;;;;;;5026969;28;20842;-69
2024/01/29 08:23:37;;;;;;;16.43;12.20;;;8.40;8.10;;;;;;5023653;28;20469;-69
2024/01/29 08:26:04;;;;;;;15.30;12.10;;;8.60;7.30;;;;;;5027477;28;20508;-69
2024/01/29 08:28:31;;;;;;;17.40;12.40;;;8.70;8.00;;;;;;5026388;28;20493;-69
2024/01/29 08:30:59;;;;;;;15.13;11.70;;;8.90;8.10;;;;;;5024430;28;20474;-69
2024/01/29 08:33:25;;;;;;;14.90;12.20;;;9.00;8.10;;;;;;5020040;28;20463;-69
2024/01/29 08:35:52;;;;;;;16.63;12.33;;;9.00;8.00;;;;;;5022431;28;20464;-69
2024/01/29 08:38:20;;;;;;;14.67;11.57;;;9.10;6.90;;;;;;5014340;28;20565;-69
2024/01/29 08:40:47;;;;;;;17.70;13.27;;;9.30;5.80;;;;;;5022408;28;20491;-69
2024/01/29 08:43:13;;;;;;;18.97;13.67;;;9.40;5.30;;;;;;5024569;28;20851;-68
2024/01/29 08:45:40;;;;;;;16.20;13.00;;;9.50;4.80;;;;;;5021498;28;20485;-69
2024/01/29 08:48:07;;;;;;;16.67;14.07;;;9.70;4.10;;;;;;5029291;28;20483;-70
2024/01/29 08:50:34;;;;;;;16.17;14.00;;;9.90;3.50;;;;;;5027633;28;20462;-68
2024/01/29 08:53:02;;;;;;;18.17;14.87;;;10.30;2.30;;;;;;5025997;28;20460;-68
2024/01/29 08:55:31;;;;;;;19.83;15.10;;;11.00;1.20;;;;;;5025114;28;21175;-71
2024/01/29 08:57:58;;;;;;;17.70;14.00;;;11.40;1.00;;;;;;5020826;28;20518;-69
2024/01/29 09:00:25;;;;;;;16.20;12.80;;;11.60;1.00;;;;;;5020224;28;20459;-69
2024/01/29 09:02:52;;;;;;;19.87;14.20;;;11.60;1.00;;;;;;5024611;28;20995;-69
2024/01/29 09:05:18;;;;;;;17.80;14.60;;;11.60;1.00;;;;;;5026636;28;20481;-71
2024/01/29 09:07:45;;;;;;;16.10;13.37;;;11.70;1.00;;;;;;5027093;28;20482;-69
2024/01/29 09:10:12;;;;;;;15.63;12.80;;;11.80;1.00;;;;;;5026663;28;20494;-69
2024/01/29 09:12:40;;;;;;;15.17;12.70;;;12.10;1.00;;;;;;5024791;28;20473;-69
2024/01/29 09:15:07;;;;;;;15.80;13.27;;;12.60;1.00;;;;;;5018524;28;20499;-67
2024/01/29 09:17:34;;;;;;;17.40;13.87;;;13.50;1.00;;;;;;5017647;28;20504;-72
2024/01/29 09:20:01;;;;;;;16.87;13.80;;;14.40;1.00;;;;;;5024463;28;20478;-71
2024/01/29 09:22:28;;;;;;;17.57;13.63;;;15.20;1.00;;;;;;5024903;28;20509;-71
2024/01/29 09:24:54;;;;;;;16.40;13.03;;;16.00;1.00;;;;;;5022708;28;20955;-73
2024/01/29 09:27:21;;;;;;;14.80;12.03;;;16.80;1.00;;;;;;5024789;28;20494;-69
2024/01/29 09:29:49;;;;;;;15.50;11.97;;;17.50;1.00;;;;;;5019696;28;20478;-70
2024/01/29 09:32:16;;;;;;;12.90;11.30;;;18.30;1.00;;;;;;5024920;28;21003;-72
2024/01/29 09:34:42;;;;;;;14.70;10.43;;;18.80;1.00;;;;;;5027529;28;20470;-72
2024/01/29 09:37:09;;;;;;;14.93;11.47;;;19.20;1.00;;;;;;5023368;28;20490;-69
2024/01/29 09:39:36;;;;;;;14.13;11.57;;;19.70;1.00;;;;;;5026380;28;20943;-71
2024/01/29 09:42:04;;;;;;;12.17;10.60;;;20.30;1.00;;;;;;5028013;28;20467;-67
2024/01/29 09:44:38;;;;;;;12.70;11.07;;;20.70;1.00;;;;;;5026396;28;20479;-67
2024/01/29 09:47:07;;;;;;;12.30;10.20;;;21.10;1.00;;;;;;5023880;28;20518;-67
2024/01/29 09:49:35;;;;;;;12.30;10.70;;;21.30;1.00;;;;;;5023075;28;20467;-67
2024/01/29 09:52:03;;;;;;;13.27;11.50;;;21.50;1.00;;;;;;5026962;28;20566;-67
2024/01/29 09:54:30;;;;;;;12.00;10.10;;;21.60;1.00;;;;;;5026021;28;20522;-67
2024/01/29 09:56:57;;;;;;;14.50;11.63;;;21.90;1.00;;;;;;5023089;28;20489;-66
2024/01/29 09:59:24;;;;;;;12.70;10.90;;;21.90;1.00;;;;;;5025769;28;20463;-68
2024/01/29 10:01:51;;;;;;;20.17;12.93;;;21.90;1.00;;;;;;5022539;28;20471;-67
2024/01/29 10:04:21;;;;;;;21.47;12.80;;;21.90;1.00;;;;;;5021134;28;20931;-67
2024/01/29 10:06:48;;;;;;;14.23;11.00;;;21.80;1.00;;;;;;5021268;28;20492;-68
2024/01/29 10:09:15;;;;;;;12.90;11.60;;;21.70;1.00;;;;;;5026506;28;20466;-69
2024/01/29 10:11:43;;;;;;;14.90;10.70;;;21.50;1.00;;;;;;5021869;28;20467;-69
2024/01/29 10:14:10;;;;;;;13.40;11.40;;;21.10;1.00;;;;;;5026138;28;20463;-69
2024/01/29 10:16:37;;;;;;;11.97;9.80;;;20.70;1.00;;;;;;5028060;28;20455;-69
2024/01/29 10:19:05;;;;;;;13.10;11.40;;;20.30;1.00;;;;;;5028797;28;20502;-69
2024/01/29 10:21:39;;;;;;;13.37;11.10;;;19.70;1.00;;;;;;5025180;28;20471;-69
2024/01/29 10:24:13;;;;;;;15.70;12.77;;;19.20;1.00;;;;;;5022851;28;20467;-69
2024/01/29 10:26:39;;;;;;;15.33;11.73;;;18.70;1.00;;;;;;5029000;28;20491;-69
2024/01/29 10:29:07;;;;;;;12.90;11.23;;;18.30;1.00;;;;;;5026106;28;20461;-69
2024/01/29 10:31:34;;;;;;;13.17;11.77;;;18.00;1.00;;;;;;5027974;28;20471;-69
2024/01/29 10:34:03;;;;;;;14.30;12.10;;;17.60;1.00;;;;;;5029211;28;20451;-69
2024/01/29 10:36:30;;;;;;;14.00;11.17;;;17.40;1.00;;;;;;5023701;28;20472;-69
2024/01/29 10:38:59;;;;;;;13.60;12.17;;;17.20;1.00;;;;;;5023944;28;20470;-69
2024/01/29 10:41:27;;;;;;;15.10;11.67;;;17.20;1.00;;;;;;5038186;28;20463;-69
2024/01/29 10:43:54;;;;;;;14.73;12.17;;;17.20;1.00;;;;;;5034100;28;20473;-69
2024/01/29 10:46:22;;;;;;;13.13;11.07;;;17.30;1.00;;;;;;5025283;28;20479;-71
2024/01/29 10:48:49;;;;;;;14.13;11.37;;;17.30;1.00;;;;;;5030491;28;20960;-71
2024/01/29 10:51:17;;;;;;;12.63;10.87;;;17.40;1.00;;;;;;5026377;28;20987;-72
2024/01/29 10:53:45;;;;;;;12.77;10.80;;;17.40;1.00;;;;;;5027890;28;20470;-70
2024/01/29 10:56:14;;;;;;;16.83;11.93;;;17.40;1.00;;;;;;5026636;28;20455;-69
2024/01/29 10:58:42;;;;;;;14.73;12.90;;;17.40;1.00;;;;;;5024582;28;20773;-70
2024/01/29 11:01:11;;;;;;;14.27;11.57;;;17.40;1.00;;;;;;5025724;28;20471;-68
2024/01/29 11:03:38;;;;;;;15.60;11.40;;;17.40;1.00;;;;;;5025483;28;20466;-70
2024/01/29 11:06:12;;;;;;;16.83;13.60;;;17.50;1.00;;;;;;5025230;28;20487;-72
2024/01/29 11:08:41;;;;;;;14.17;12.67;;;17.60;1.00;;;;;;5021587;28;23163;-72
2024/01/29 11:11:10;;;;;;;17.53;14.10;;;17.70;1.00;;;;;;5026820;28;20948;-69
2024/01/29 11:13:39;;;;;;;15.07;12.13;;;17.80;1.00;;;;;;5020801;28;21180;-69
2024/01/29 11:16:07;;;;;;;15.40;13.10;;;17.90;1.00;;;;;;5022672;28;22372;-72
2024/01/29 11:18:34;;;;;;;13.30;11.57;;;18.00;1.00;;;;;;5021658;28;20489;-70
2024/01/29 11:21:01;;;;;;;15.13;11.83;;;18.20;1.00;;;;;;5022709;28;20459;-69
2024/01/29 11:23:29;;;;;;;13.63;11.90;;;18.20;1.00;;;;;;5023175;28;20841;-69
2024/01/29 11:25:59;;;;;;;15.30;11.50;;;18.20;1.00;;;;;;5023597;28;21013;-70
2024/01/29 11:28:26;;;;;;;14.13;12.53;;;18.40;1.00;;;;;;5024718;28;20623;-69
2024/01/29 11:30:54;;;;;;;13.43;11.70;;;18.50;1.00;;;;;;5023811;28;20490;-70
2024/01/29 11:33:23;;;;;;;14.33;11.93;;;18.50;1.00;;;;;;5026204;28;20470;-68
2024/01/29 11:35:55;;;;;;;14.67;12.60;;;18.70;1.00;;;;;;5022648;28;20502;-69
2024/01/29 11:38:23;;;;;;;12.57;11.27;;;18.90;1.00;;;;;;5018259;28;20549;-72
2024/01/29 11:40:50;;;;;;;13.27;10.90;;;19.10;1.00;;;;;;5025364;28;20471;-72
2024/01/29 11:43:18;;;;;;;14.27;12.53;;;19.30;1.00;;;;;;5025928;28;20455;-72
2024/01/29 11:45:47;;;;;;;13.53;11.27;;;19.50;1.00;;;;;;5025490;28;20459;-72
2024/01/29 11:48:17;;;;;;;13.07;11.57;;;19.60;1.00;;;;;;5026725;28;20835;-72
2024/01/29 11:50:46;;;;;;;14.83;12.10;;;19.70;1.00;;;;;;5019717;28;20467;-72
2024/01/29 11:53:14;;;;;;;13.73;12.30;;;19.90;1.00;;;;;;5024612;28;20467;-72
2024/01/29 11:55:41;;;;;;;13.50;11.67;;;20.20;1.00;;;;;;5025696;28;20458;-72
2024/01/29 11:58:13;;;;;;;16.73;12.17;;;20.50;1.00;;;;;;5027122;28;20482;-72
2024/01/29 12:00:40;;;;;;;15.80;12.30;;;20.80;1.00;;;;;;5071404;23;20881;-70
2024/01/29 12:03:09;;;;;;;13.70;12.30;;;21.10;1.00;;;;;;5067019;28;20468;-70
2024/01/29 12:05:38;;;;;;;13.00;11.07;;;21.40;1.00;;;;;;5062152;28;20505;-71
2024/01/29 12:08:12;;;;;;;15.10;12.70;;;21.70;1.00;;;;;;5065694;28;20517;-71
2024/01/29 12:10:39;;;;;;;15.70;11.90;;;22.00;1.00;;;;;;5063820;28;21274;-72
2024/01/29 12:13:12;;;;;;;12.17;10.87;;;22.20;1.00;;;;;;5066780;28;20884;-71
2024/01/29 12:15:38;;;;;;;15.13;11.83;;;22.30;1.00;;;;;;5063288;28;20464;-71
2024/01/29 12:18:09;;;;;;;13.77;12.33;;;22.50;1.00;;;;;;5064780;28;21020;-72
2024/01/29 12:20:37;;;;;;;14.50;12.17;;;22.60;1.00;;;;;;5066830;28;20950;-70
2024/01/29 12:23:04;;;;;;;14.53;12.97;;;22.60;1.00;;;;;;5066557;28;20551;-71
2024/01/29 12:25:31;;;;;;;13.97;12.50;;;22.50;1.00;;;;;;5067726;28;20468;-71
2024/01/29 12:28:02;;;;;;;14.00;11.97;;;22.50;1.00;;;;;;5065326;28;20492;-71
2024/01/29 12:30:29;;;;;;;14.87;13.30;;;22.40;1.00;;;;;;5069217;28;20488;-70
2024/01/29 12:32:56;;;;;;;13.30;11.33;;;22.20;1.00;;;;;;5074294;28;20465;-70
2024/01/29 12:35:25;;;;;;;14.50;12.03;;;22.10;1.00;;;;;;5089580;28;20488;-71